sensor_id;sensor_type;location;lat;lon;timestamp;pressure;altitude;pressure_sealevel;temperature;humidity
66176;BME280;52977;44.816;20.538;2023-08-20T00:02:05;99874.97;;;25.11;91.45
66176;BME280;52977;44.816;20.538;2023-08-20T00:04:35;99871.03;;;25.08;92.04
66176;BME280;52977;44.816;20.538;2023-08-20T00:07:02;99877.16;;;24.96;93.14
66176;BME280;52977;44.816;20.538;2023-08-20T00:09:28;99864.78;;;24.97;93.34
66176;BME280;52977;44.816;20.538;2023-08-20T00:11:55;99860.06;;;24.90;93.81
66176;BME280;52977;44.816;20.538;2023-08-20T00:14:54;99868.00;;;24.95;94.50
66176;BME280;52977;44.816;20.538;2023-08-20T00:17:20;99827.56;;;24.72;93.80
66176;BME280;52977;44.816;20.538;2023-08-20T00:19:47;99865.53;;;25.01;92.44
66176;BME280;52977;44.816;20.538;2023-08-20T00:22:14;99813.31;;;24.60;92.16
66176;BME280;52977;44.816;20.538;2023-08-20T00:24:41;99863.50;;;25.01;91.79
66176;BME280;52977;44.816;20.538;2023-08-20T00:27:07;99855.59;;;24.96;92.26
66176;BME280;52977;44.816;20.538;2023-08-20T00:29:34;99871.88;;;25.05;92.67
66176;BME280;52977;44.816;20.538;2023-08-20T00:32:00;99867.84;;;25.06;93.28
66176;BME280;52977;44.816;20.538;2023-08-20T00:34:26;99853.28;;;24.91;93.60
66176;BME280;52977;44.816;20.538;2023-08-20T00:36:52;99856.88;;;24.88;93.35
66176;BME280;52977;44.816;20.538;2023-08-20T00:39:18;99843.41;;;24.83;93.55
66176;BME280;52977;44.816;20.538;2023-08-20T00:41:44;99880.69;;;25.00;93.33
66176;BME280;52977;44.816;20.538;2023-08-20T00:44:11;99828.19;;;24.49;93.44
66176;BME280;52977;44.816;20.538;2023-08-20T00:46:38;99867.09;;;24.67;93.69
66176;BME280;52977;44.816;20.538;2023-08-20T00:49:04;99880.25;;;24.67;98.38
66176;BME280;52977;44.816;20.538;2023-08-20T00:51:32;99884.31;;;24.55;100.00
66176;BME280;52977;44.816;20.538;2023-08-20T00:54:00;99873.06;;;24.24;100.00
66176;BME280;52977;44.816;20.538;2023-08-20T00:56:27;99892.38;;;24.00;100.00
66176;BME280;52977;44.816;20.538;2023-08-20T00:58:54;99845.56;;;23.70;100.00
66176;BME280;52977;44.816;20.538;2023-08-20T01:01:24;99830.81;;;23.73;100.00
66176;BME280;52977;44.816;20.538;2023-08-20T01:03:51;99870.34;;;24.17;100.00
66176;BME280;52977;44.816;20.538;2023-08-20T01:09:11;99826.22;;;24.01;100.00
66176;BME280;52977;44.816;20.538;2023-08-20T01:11:46;99869.03;;;24.25;100.00
66176;BME280;52977;44.816;20.538;2023-08-20T01:14:16;99863.81;;;24.31;100.00
66176;BME280;52977;44.816;20.538;2023-08-20T01:16:45;99870.63;;;24.26;100.00
66176;BME280;52977;44.816;20.538;2023-08-20T01:19:18;99863.00;;;24.34;100.00
66176;BME280;52977;44.816;20.538;2023-08-20T01:22:02;99835.69;;;24.14;100.00
66176;BME280;52977;44.816;20.538;2023-08-20T01:27:31;99873.84;;;24.25;100.00
66176;BME280;52977;44.816;20.538;2023-08-20T01:30:02;99871.97;;;24.11;100.00
66176;BME280;52977;44.816;20.538;2023-08-20T01:32:30;99829.91;;;23.91;100.00
66176;BME280;52977;44.816;20.538;2023-08-20T01:34:56;99775.66;;;23.50;100.00
66176;BME280;52977;44.816;20.538;2023-08-20T01:37:23;99816.84;;;23.77;100.00
66176;BME280;52977;44.816;20.538;2023-08-20T01:39:48;99829.91;;;23.91;100.00
66176;BME280;52977;44.816;20.538;2023-08-20T01:42:14;99832.25;;;23.96;100.00
66176;BME280;52977;44.816;20.538;2023-08-20T01:44:40;99885.41;;;24.23;100.00
66176;BME280;52977;44.816;20.538;2023-08-20T01:47:07;99895.78;;;24.19;100.00
66176;BME280;52977;44.816;20.538;2023-08-20T01:49:32;99895.78;;;24.19;100.00
66176;BME280;52977;44.816;20.538;2023-08-20T01:51:58;99862.13;;;23.95;100.00
66176;BME280;52977;44.816;20.538;2023-08-20T01:54:24;99897.00;;;24.18;100.00
66176;BME280;52977;44.816;20.538;2023-08-20T01:56:50;99890.97;;;24.23;100.00
66176;BME280;52977;44.816;20.538;2023-08-20T01:59:15;99889.03;;;24.20;100.00
66176;BME280;52977;44.816;20.538;2023-08-20T02:04:06;99870.50;;;23.92;100.00
66176;BME280;52977;44.816;20.538;2023-08-20T02:06:32;99887.97;;;24.03;100.00
66176;BME280;52977;44.816;20.538;2023-08-20T02:08:58;99896.34;;;23.99;100.00
66176;BME280;52977;44.816;20.538;2023-08-20T02:11:25;99895.53;;;24.02;100.00
66176;BME280;52977;44.816;20.538;2023-08-20T02:13:51;99887.56;;;24.01;100.00
66176;BME280;52977;44.816;20.538;2023-08-20T02:16:17;99901.81;;;24.14;100.00
66176;BME280;52977;44.816;20.538;2023-08-20T02:18:44;99895.84;;;24.12;100.00
66176;BME280;52977;44.816;20.538;2023-08-20T02:21:09;99894.25;;;24.11;100.00
66176;BME280;52977;44.816;20.538;2023-08-20T02:23:35;99894.69;;;24.09;100.00
66176;BME280;52977;44.816;20.538;2023-08-20T02:26:00;99860.53;;;23.94;100.00
66176;BME280;52977;44.816;20.538;2023-08-20T02:28:29;99872.03;;;24.03;100.00
66176;BME280;52977;44.816;20.538;2023-08-20T02:30:54;99895.03;;;24.15;100.00
66176;BME280;52977;44.816;20.538;2023-08-20T02:33:20;99890.41;;;23.94;100.00
66176;BME280;52977;44.816;20.538;2023-08-20T02:35:46;99877.72;;;23.82;100.00
66176;BME280;52977;44.816;20.538;2023-08-20T02:38:11;99908.69;;;23.98;100.00
66176;BME280;52977;44.816;20.538;2023-08-20T02:40:40;99923.88;;;23.90;100.00
66176;BME280;52977;44.816;20.538;2023-08-20T02:43:07;99882.97;;;23.69;100.00
66176;BME280;52977;44.816;20.538;2023-08-20T02:45:38;99922.31;;;23.89;100.00
66176;BME280;52977;44.816;20.538;2023-08-20T02:48:05;99935.81;;;23.87;100.00
66176;BME280;52977;44.816;20.538;2023-08-20T02:50:31;99906.84;;;23.74;100.00
66176;BME280;52977;44.816;20.538;2023-08-20T02:52:57;99913.66;;;23.62;100.00
66176;BME280;52977;44.816;20.538;2023-08-20T02:55:23;99897.94;;;23.26;100.00
66176;BME280;52977;44.816;20.538;2023-08-20T02:57:49;99931.66;;;23.46;100.00
66176;BME280;52977;44.816;20.538;2023-08-20T03:00:15;99923.75;;;23.37;100.00
66176;BME280;52977;44.816;20.538;2023-08-20T03:02:42;99894.75;;;23.24;100.00
66176;BME280;52977;44.816;20.538;2023-08-20T03:05:09;99923.25;;;23.53;100.00
66176;BME280;52977;44.816;20.538;2023-08-20T03:07:36;99926.41;;;23.59;100.00
66176;BME280;52977;44.816;20.538;2023-08-20T03:10:02;99915.69;;;23.58;100.00
66176;BME280;52977;44.816;20.538;2023-08-20T03:12:32;99931.16;;;23.62;100.00
66176;BME280;52977;44.816;20.538;2023-08-20T03:14:59;99902.19;;;23.49;100.00
66176;BME280;52977;44.816;20.538;2023-08-20T03:17:25;99933.94;;;23.69;100.00
66176;BME280;52977;44.816;20.538;2023-08-20T03:19:55;99932.66;;;23.78;100.00
66176;BME280;52977;44.816;20.538;2023-08-20T03:22:41;99913.25;;;23.63;100.00
66176;BME280;52977;44.816;20.538;2023-08-20T03:25:07;99932.31;;;23.76;100.00
66176;BME280;52977;44.816;20.538;2023-08-20T03:27:33;99841.88;;;23.17;100.00
66176;BME280;52977;44.816;20.538;2023-08-20T03:30:01;99895.44;;;23.46;100.00
66176;BME280;52977;44.816;20.538;2023-08-20T03:32:28;99880.78;;;23.31;100.00
66176;BME280;52977;44.816;20.538;2023-08-20T03:34:54;99926.81;;;23.61;100.00
66176;BME280;52977;44.816;20.538;2023-08-20T03:37:22;99889.91;;;23.39;100.00
66176;BME280;52977;44.816;20.538;2023-08-20T03:39:48;99878.00;;;23.31;100.00
66176;BME280;52977;44.816;20.538;2023-08-20T03:42:14;99934.31;;;23.75;100.00
66176;BME280;52977;44.816;20.538;2023-08-20T03:44:40;99898.19;;;23.53;100.00
66176;BME280;52977;44.816;20.538;2023-08-20T03:47:07;99936.72;;;23.69;100.00
66176;BME280;52977;44.816;20.538;2023-08-20T03:49:33;99946.66;;;23.70;100.00
66176;BME280;52977;44.816;20.538;2023-08-20T03:51:59;99940.66;;;23.72;100.00
66176;BME280;52977;44.816;20.538;2023-08-20T03:54:28;99939.88;;;23.75;100.00
66176;BME280;52977;44.816;20.538;2023-08-20T03:56:56;99936.69;;;23.77;100.00
66176;BME280;52977;44.816;20.538;2023-08-20T03:59:23;99937.47;;;23.77;100.00
66176;BME280;52977;44.816;20.538;2023-08-20T04:01:50;99916.88;;;23.60;100.00
66176;BME280;52977;44.816;20.538;2023-08-20T04:04:16;99941.84;;;23.75;100.00
66176;BME280;52977;44.816;20.538;2023-08-20T04:06:43;99899.78;;;23.54;100.00
66176;BME280;52977;44.816;20.538;2023-08-20T04:09:09;99923.56;;;23.74;100.00
66176;BME280;52977;44.816;20.538;2023-08-20T04:11:35;99931.84;;;23.84;100.00
66176;BME280;52977;44.816;20.538;2023-08-20T04:14:02;99941.03;;;23.85;100.00
66176;BME280;52977;44.816;20.538;2023-08-20T04:16:30;99942.59;;;23.86;100.00
66176;BME280;52977;44.816;20.538;2023-08-20T04:18:56;99935.81;;;23.87;100.00
66176;BME280;52977;44.816;20.538;2023-08-20T04:21:22;99951.75;;;23.83;100.00
66176;BME280;52977;44.816;20.538;2023-08-20T04:23:48;99941.44;;;23.76;100.00
66176;BME280;52977;44.816;20.538;2023-08-20T04:26:15;99932.38;;;23.61;100.00
66176;BME280;52977;44.816;20.538;2023-08-20T04:28:42;99888.31;;;23.34;100.00
66176;BME280;52977;44.816;20.538;2023-08-20T04:31:08;99936.28;;;23.78;100.00
66176;BME280;52977;44.816;20.538;2023-08-20T04:33:46;99940.63;;;23.83;100.00
66176;BME280;52977;44.816;20.538;2023-08-20T04:36:17;99941.00;;;23.88;100.00
66176;BME280;52977;44.816;20.538;2023-08-20T04:38:42;99920.78;;;23.74;100.00
66176;BME280;52977;44.816;20.538;2023-08-20T04:41:08;99913.97;;;23.75;100.00
66176;BME280;52977;44.816;20.538;2023-08-20T04:43:34;99936.25;;;23.82;100.00
66176;BME280;52977;44.816;20.538;2023-08-20T04:46:00;99948.59;;;23.81;100.00
66176;BME280;52977;44.816;20.538;2023-08-20T04:48:27;99959.34;;;23.79;100.00
66176;BME280;52977;44.816;20.538;2023-08-20T04:50:54;99897.47;;;23.38;100.00
66176;BME280;52977;44.816;20.538;2023-08-20T04:53:19;99951.44;;;23.66;100.00
66176;BME280;52977;44.816;20.538;2023-08-20T04:55:46;99960.59;;;23.70;100.00
66176;BME280;52977;44.816;20.538;2023-08-20T04:58:12;99940.78;;;23.50;100.00
66176;BME280;52977;44.816;20.538;2023-08-20T05:00:38;99975.28;;;23.75;100.00
66176;BME280;52977;44.816;20.538;2023-08-20T05:03:11;99972.13;;;23.69;100.00
66176;BME280;52977;44.816;20.538;2023-08-20T05:05:37;99978.13;;;23.71;100.00
66176;BME280;52977;44.816;20.538;2023-08-20T05:08:03;99977.72;;;23.69;100.00
66176;BME280;52977;44.816;20.538;2023-08-20T05:10:29;99979.72;;;23.68;100.00
66176;BME280;52977;44.816;20.538;2023-08-20T05:12:56;99954.72;;;23.47;100.00
66176;BME280;52977;44.816;20.538;2023-08-20T05:15:22;99971.41;;;23.61;100.00
66176;BME280;52977;44.816;20.538;2023-08-20T05:17:49;99935.66;;;23.34;100.00
66176;BME280;52977;44.816;20.538;2023-08-20T05:20:16;99954.81;;;23.25;100.00
66176;BME280;52977;44.816;20.538;2023-08-20T05:22:43;99954.00;;;23.25;100.00
66176;BME280;52977;44.816;20.538;2023-08-20T05:25:09;99915.50;;;22.94;100.00
66176;BME280;52977;44.816;20.538;2023-08-20T05:27:36;99954.38;;;23.30;100.00
66176;BME280;52977;44.816;20.538;2023-08-20T05:30:02;99895.22;;;22.97;100.00
66176;BME280;52977;44.816;20.538;2023-08-20T05:32:29;99913.06;;;23.14;100.00
66176;BME280;52977;44.816;20.538;2023-08-20T05:34:57;99965.50;;;23.45;100.00
66176;BME280;52977;44.816;20.538;2023-08-20T05:37:23;99952.78;;;23.33;100.00
66176;BME280;52977;44.816;20.538;2023-08-20T05:39:49;99956.72;;;23.46;100.00
66176;BME280;52977;44.816;20.538;2023-08-20T05:42:16;99967.75;;;23.68;100.00
66176;BME280;52977;44.816;20.538;2023-08-20T05:44:47;99900.66;;;23.37;100.00
66176;BME280;52977;44.816;20.538;2023-08-20T05:47:17;99962.88;;;23.94;100.00
66176;BME280;52977;44.816;20.538;2023-08-20T05:49:42;99908.53;;;23.53;100.00
66176;BME280;52977;44.816;20.538;2023-08-20T05:52:08;99965.75;;;23.72;100.00
66176;BME280;52977;44.816;20.538;2023-08-20T05:54:34;99943.06;;;23.74;100.00
66176;BME280;52977;44.816;20.538;2023-08-20T05:57:00;99974.84;;;23.91;100.00
66176;BME280;52977;44.816;20.538;2023-08-20T05:59:27;99994.38;;;23.91;100.00
66176;BME280;52977;44.816;20.538;2023-08-20T06:01:53;99941.59;;;23.47;100.00
66176;BME280;52977;44.816;20.538;2023-08-20T06:04:20;99990.88;;;23.65;100.00
66176;BME280;52977;44.816;20.538;2023-08-20T06:06:46;99996.81;;;23.74;100.00
66176;BME280;52977;44.816;20.538;2023-08-20T06:09:11;99994.78;;;23.78;100.00
66176;BME280;52977;44.816;20.538;2023-08-20T06:11:37;99986.47;;;23.67;100.00
66176;BME280;52977;44.816;20.538;2023-08-20T06:14:03;100001.97;;;23.76;100.00
66176;BME280;52977;44.816;20.538;2023-08-20T06:16:28;99975.78;;;23.59;100.00
66176;BME280;52977;44.816;20.538;2023-08-20T06:18:54;100005.13;;;23.85;100.00
66176;BME280;52977;44.816;20.538;2023-08-20T06:21:19;99994.75;;;23.85;100.00
66176;BME280;52977;44.816;20.538;2023-08-20T06:23:45;100006.66;;;23.97;100.00
66176;BME280;52977;44.816;20.538;2023-08-20T06:26:11;99977.66;;;23.83;100.00
66176;BME280;52977;44.816;20.538;2023-08-20T06:28:37;100000.28;;;24.03;100.00
66176;BME280;52977;44.816;20.538;2023-08-20T06:31:02;99996.66;;;24.06;100.00
66176;BME280;52977;44.816;20.538;2023-08-20T06:33:28;99999.84;;;24.05;100.00
66176;BME280;52977;44.816;20.538;2023-08-20T06:35:54;100005.03;;;24.06;100.00
66176;BME280;52977;44.816;20.538;2023-08-20T06:38:19;99993.44;;;24.12;100.00
66176;BME280;52977;44.816;20.538;2023-08-20T06:40:45;99950.94;;;23.86;100.00
66176;BME280;52977;44.816;20.538;2023-08-20T06:43:11;99969.97;;;24.05;100.00
66176;BME280;52977;44.816;20.538;2023-08-20T06:45:36;99949.31;;;23.96;100.00
66176;BME280;52977;44.816;20.538;2023-08-20T06:48:02;99957.19;;;24.12;100.00
66176;BME280;52977;44.816;20.538;2023-08-20T06:50:28;99986.56;;;24.27;100.00
66176;BME280;52977;44.816;20.538;2023-08-20T06:52:54;99990.91;;;24.32;100.00
66176;BME280;52977;44.816;20.538;2023-08-20T06:55:20;99990.19;;;24.24;100.00
66176;BME280;52977;44.816;20.538;2023-08-20T06:57:46;99999.63;;;24.41;100.00
66176;BME280;52977;44.816;20.538;2023-08-20T07:00:13;100006.28;;;24.54;100.00
66176;BME280;52977;44.816;20.538;2023-08-20T07:02:39;99999.91;;;24.54;100.00
66176;BME280;52977;44.816;20.538;2023-08-20T07:05:05;100005.13;;;24.52;100.00
66176;BME280;52977;44.816;20.538;2023-08-20T07:07:30;99988.88;;;24.39;100.00
66176;BME280;52977;44.816;20.538;2023-08-20T07:09:56;100003.13;;;24.49;100.00
66176;BME280;52977;44.816;20.538;2023-08-20T07:12:23;99991.97;;;24.52;100.00
66176;BME280;52977;44.816;20.538;2023-08-20T07:14:49;100004.28;;;24.62;100.00
66176;BME280;52977;44.816;20.538;2023-08-20T07:17:15;99986.34;;;24.63;100.00
66176;BME280;52977;44.816;20.538;2023-08-20T07:19:41;100002.19;;;24.73;100.00
66176;BME280;52977;44.816;20.538;2023-08-20T07:22:07;100007.34;;;24.75;100.00
66176;BME280;52977;44.816;20.538;2023-08-20T07:24:33;100000.25;;;24.67;100.00
66176;BME280;52977;44.816;20.538;2023-08-20T07:27:01;100014.53;;;24.76;100.00
66176;BME280;52977;44.816;20.538;2023-08-20T07:29:30;99961.63;;;24.62;100.00
66176;BME280;52977;44.816;20.538;2023-08-20T07:31:57;99983.00;;;24.79;100.00
66176;BME280;52977;44.816;20.538;2023-08-20T07:34:23;99998.81;;;24.93;100.00
66176;BME280;52977;44.816;20.538;2023-08-20T07:36:49;100001.53;;;25.00;97.29
66176;BME280;52977;44.816;20.538;2023-08-20T07:39:15;99998.66;;;25.07;99.04
66176;BME280;52977;44.816;20.538;2023-08-20T07:41:42;99995.06;;;25.11;92.96
66176;BME280;52977;44.816;20.538;2023-08-20T07:44:08;99981.13;;;25.07;92.72
66176;BME280;52977;44.816;20.538;2023-08-20T07:46:34;99972.66;;;25.18;89.07
66176;BME280;52977;44.816;20.538;2023-08-20T07:49:00;100008.16;;;25.55;97.27
66176;BME280;52977;44.816;20.538;2023-08-20T07:51:27;100008.53;;;25.57;100.00
66176;BME280;52977;44.816;20.538;2023-08-20T07:53:53;100017.66;;;25.62;97.06
66176;BME280;52977;44.816;20.538;2023-08-20T07:56:19;100019.78;;;25.54;97.55
66176;BME280;52977;44.816;20.538;2023-08-20T07:58:45;100002.34;;;25.42;94.89
66176;BME280;52977;44.816;20.538;2023-08-20T08:01:11;100016.59;;;25.52;92.14
66176;BME280;52977;44.816;20.538;2023-08-20T08:03:40;100019.47;;;25.45;94.37
66176;BME280;52977;44.816;20.538;2023-08-20T08:06:06;100019.88;;;25.43;94.97
66176;BME280;52977;44.816;20.538;2023-08-20T08:08:32;100013.47;;;25.46;93.05
66176;BME280;52977;44.816;20.538;2023-08-20T08:10:58;100022.97;;;25.52;90.75
66176;BME280;52977;44.816;20.538;2023-08-20T08:13:24;100023.69;;;25.60;89.99
66176;BME280;52977;44.816;20.538;2023-08-20T08:15:51;100022.03;;;25.66;91.98
66176;BME280;52977;44.816;20.538;2023-08-20T08:18:20;99995.72;;;25.60;90.22
66176;BME280;52977;44.816;20.538;2023-08-20T08:20:47;99979.81;;;25.57;91.43
66176;BME280;52977;44.816;20.538;2023-08-20T08:23:13;100016.19;;;25.84;90.83
66176;BME280;52977;44.816;20.538;2023-08-20T08:25:39;99978.97;;;25.60;88.98
66176;BME280;52977;44.816;20.538;2023-08-20T08:28:06;99998.72;;;25.76;90.78
66176;BME280;52977;44.816;20.538;2023-08-20T08:30:32;100023.19;;;26.00;88.95
66176;BME280;52977;44.816;20.538;2023-08-20T08:32:59;100008.41;;;25.99;86.34
66176;BME280;52977;44.816;20.538;2023-08-20T08:35:25;99956.78;;;25.76;86.35
66176;BME280;52977;44.816;20.538;2023-08-20T08:37:51;100025.28;;;26.23;85.12
66176;BME280;52977;44.816;20.538;2023-08-20T08:40:17;100019.63;;;26.26;84.79
66176;BME280;52977;44.816;20.538;2023-08-20T08:42:48;100020.09;;;26.21;86.02
66176;BME280;52977;44.816;20.538;2023-08-20T08:45:17;100022.16;;;26.17;87.71
66176;BME280;52977;44.816;20.538;2023-08-20T08:47:45;100028.28;;;26.08;89.13
66176;BME280;52977;44.816;20.538;2023-08-20T08:50:11;100026.69;;;26.07;85.54
66176;BME280;52977;44.816;20.538;2023-08-20T08:52:39;100035.47;;;26.09;86.42
66176;BME280;52977;44.816;20.538;2023-08-20T08:55:06;100000.00;;;25.99;85.18
66176;BME280;52977;44.816;20.538;2023-08-20T08:57:37;100041.94;;;26.30;84.96
66176;BME280;52977;44.816;20.538;2023-08-20T09:00:04;100038.38;;;26.30;86.37
66176;BME280;52977;44.816;20.538;2023-08-20T09:02:31;100038.06;;;26.24;83.59
66176;BME280;52977;44.816;20.538;2023-08-20T09:04:58;100037.06;;;26.38;80.63
66176;BME280;52977;44.816;20.538;2023-08-20T09:07:24;100025.41;;;26.43;80.70
66176;BME280;52977;44.816;20.538;2023-08-20T09:09:50;100039.81;;;26.65;78.04
66176;BME280;52977;44.816;20.538;2023-08-20T09:12:18;100043.38;;;26.69;81.38
66176;BME280;52977;44.816;20.538;2023-08-20T09:14:49;100040.19;;;26.67;83.19
66176;BME280;52977;44.816;20.538;2023-08-20T09:17:16;100028.75;;;26.58;82.72
66176;BME280;52977;44.816;20.538;2023-08-20T09:19:44;100015.25;;;26.53;83.32
66176;BME280;52977;44.816;20.538;2023-08-20T09:22:14;100045.28;;;26.76;80.15
66176;BME280;52977;44.816;20.538;2023-08-20T09:24:42;100005.25;;;26.52;79.15
66176;BME280;52977;44.816;20.538;2023-08-20T09:27:08;100040.66;;;26.89;80.99
66176;BME280;52977;44.816;20.538;2023-08-20T09:29:44;100040.06;;;27.02;78.48
66176;BME280;52977;44.816;20.538;2023-08-20T09:32:29;100040.78;;;27.06;76.95
66176;BME280;52977;44.816;20.538;2023-08-20T09:34:55;100047.53;;;27.08;77.58
66176;BME280;52977;44.816;20.538;2023-08-20T09:37:23;100009.19;;;26.82;78.94
66176;BME280;52977;44.816;20.538;2023-08-20T09:39:50;100045.44;;;27.12;77.94
66176;BME280;52977;44.816;20.538;2023-08-20T09:42:17;100033.03;;;27.14;75.05
66176;BME280;52977;44.816;20.538;2023-08-20T09:44:44;100032.78;;;27.04;76.27
66176;BME280;52977;44.816;20.538;2023-08-20T09:47:13;100037.28;;;27.22;74.87
66176;BME280;52977;44.816;20.538;2023-08-20T09:52:08;100033.13;;;27.30;72.21
66176;BME280;52977;44.816;20.538;2023-08-20T09:54:43;100024.28;;;27.32;71.40
66176;BME280;52977;44.816;20.538;2023-08-20T09:57:18;100029.34;;;27.40;74.16
66176;BME280;52977;44.816;20.538;2023-08-20T09:59:50;100010.78;;;27.26;74.74
66176;BME280;52977;44.816;20.538;2023-08-20T10:02:16;99999.72;;;27.19;72.35
66176;BME280;52977;44.816;20.538;2023-08-20T10:04:43;100014.31;;;27.31;72.16
66176;BME280;52977;44.816;20.538;2023-08-20T10:07:10;100031.91;;;27.55;71.69
66176;BME280;52977;44.816;20.538;2023-08-20T10:09:39;100035.41;;;27.59;70.24
66176;BME280;52977;44.816;20.538;2023-08-20T10:12:06;100016.72;;;27.52;67.81
66176;BME280;52977;44.816;20.538;2023-08-20T10:14:33;100019.44;;;27.56;66.14
66176;BME280;52977;44.816;20.538;2023-08-20T10:17:00;100027.84;;;27.56;67.31
66176;BME280;52977;44.816;20.538;2023-08-20T10:19:31;100040.78;;;27.70;67.41
66176;BME280;52977;44.816;20.538;2023-08-20T10:21:57;100014.22;;;27.58;65.89
66176;BME280;52977;44.816;20.538;2023-08-20T10:24:24;100041.78;;;27.79;67.89
66176;BME280;52977;44.816;20.538;2023-08-20T10:27:07;100040.66;;;27.77;69.19
66176;BME280;52977;44.816;20.538;2023-08-20T10:29:36;100032.94;;;27.81;68.40
66176;BME280;52977;44.816;20.538;2023-08-20T10:32:05;100027.34;;;27.81;65.27
66176;BME280;52977;44.816;20.538;2023-08-20T10:34:36;100041.66;;;27.87;66.53
66176;BME280;52977;44.816;20.538;2023-08-20T10:37:12;99982.50;;;27.61;66.16
66176;BME280;52977;44.816;20.538;2023-08-20T10:39:39;100026.16;;;27.99;67.36
66176;BME280;52977;44.816;20.538;2023-08-20T10:42:28;100014.16;;;27.98;67.61
66176;BME280;52977;44.816;20.538;2023-08-20T10:45:14;99972.72;;;27.69;68.56
66176;BME280;52977;44.816;20.538;2023-08-20T10:47:43;100031.22;;;28.07;64.80
66176;BME280;52977;44.816;20.538;2023-08-20T10:50:15;100028.13;;;28.02;67.06
66176;BME280;52977;44.816;20.538;2023-08-20T10:52:47;100035.81;;;27.97;68.72
66176;BME280;52977;44.816;20.538;2023-08-20T10:55:14;100034.00;;;28.07;61.57
66176;BME280;52977;44.816;20.538;2023-08-20T10:57:40;100009.13;;;28.09;61.32
66176;BME280;52977;44.816;20.538;2023-08-20T11:00:07;100036.34;;;28.29;61.40
66176;BME280;52977;44.816;20.538;2023-08-20T11:02:38;99953.91;;;27.86;61.74
66176;BME280;52977;44.816;20.538;2023-08-20T11:05:16;100019.25;;;28.40;58.80
66176;BME280;52977;44.816;20.538;2023-08-20T11:07:44;100035.13;;;28.46;59.63
66176;BME280;52977;44.816;20.538;2023-08-20T11:10:13;100019.16;;;28.43;61.73
66176;BME280;52977;44.816;20.538;2023-08-20T11:12:39;100013.09;;;28.45;61.18
66176;BME280;52977;44.816;20.538;2023-08-20T11:15:07;100018.91;;;28.54;62.69
66176;BME280;52977;44.816;20.538;2023-08-20T11:17:32;100028.59;;;28.70;61.97
66176;BME280;52977;44.816;20.538;2023-08-20T11:19:59;100012.63;;;28.67;63.62
66176;BME280;52977;44.816;20.538;2023-08-20T11:22:24;100032.53;;;28.72;65.28
66176;BME280;52977;44.816;20.538;2023-08-20T11:24:50;100022.63;;;28.68;65.95
66176;BME280;52977;44.816;20.538;2023-08-20T11:27:16;100008.94;;;28.70;62.38
66176;BME280;52977;44.816;20.538;2023-08-20T11:29:42;99996.13;;;28.69;64.10
66176;BME280;52977;44.816;20.538;2023-08-20T11:32:09;100017.25;;;28.90;64.05
66176;BME280;52977;44.816;20.538;2023-08-20T11:34:36;100014.00;;;28.91;63.91
66176;BME280;52977;44.816;20.538;2023-08-20T11:37:04;99986.19;;;28.80;63.92
66176;BME280;52977;44.816;20.538;2023-08-20T11:39:30;99994.94;;;28.99;64.22
66176;BME280;52977;44.816;20.538;2023-08-20T11:41:55;100021.78;;;29.17;63.46
66176;BME280;52977;44.816;20.538;2023-08-20T11:44:22;99952.75;;;28.86;61.49
66176;BME280;52977;44.816;20.538;2023-08-20T11:46:48;99994.28;;;29.08;61.52
66176;BME280;52977;44.816;20.538;2023-08-20T11:49:15;99975.06;;;29.06;62.33
66176;BME280;52977;44.816;20.538;2023-08-20T11:51:47;100001.09;;;29.23;61.13
66176;BME280;52977;44.816;20.538;2023-08-20T11:54:15;99949.81;;;28.90;60.83
66176;BME280;52977;44.816;20.538;2023-08-20T11:56:51;100001.72;;;29.31;60.91
66176;BME280;52977;44.816;20.538;2023-08-20T11:59:20;99980.31;;;29.21;61.78
66176;BME280;52977;44.816;20.538;2023-08-20T12:01:56;99987.03;;;29.40;58.86
66176;BME280;52977;44.816;20.538;2023-08-20T12:04:27;99999.56;;;29.52;59.31
66176;BME280;52977;44.816;20.538;2023-08-20T12:07:09;99955.97;;;29.30;58.90
66176;BME280;52977;44.816;20.538;2023-08-20T12:09:35;99991.13;;;29.64;58.81
66176;BME280;52977;44.816;20.538;2023-08-20T12:12:02;99987.66;;;29.73;58.55
66176;BME280;52977;44.816;20.538;2023-08-20T12:14:28;99965.84;;;29.64;58.52
66176;BME280;52977;44.816;20.538;2023-08-20T12:16:56;99978.69;;;29.78;56.82
66176;BME280;52977;44.816;20.538;2023-08-20T12:19:22;99942.78;;;29.70;56.51
66176;BME280;52977;44.816;20.538;2023-08-20T12:21:49;99990.09;;;30.00;54.22
66176;BME280;52977;44.816;20.538;2023-08-20T12:24:15;99927.47;;;29.58;54.90
66176;BME280;52977;44.816;20.538;2023-08-20T12:26:42;99974.75;;;29.89;54.98
66176;BME280;52977;44.816;20.538;2023-08-20T12:29:09;99974.31;;;29.90;57.25
66176;BME280;52977;44.816;20.538;2023-08-20T12:31:36;99976.13;;;29.97;56.28
66176;BME280;52977;44.816;20.538;2023-08-20T12:34:02;99977.84;;;30.07;58.21
66176;BME280;52977;44.816;20.538;2023-08-20T12:36:29;99956.97;;;29.92;58.62
66176;BME280;52977;44.816;20.538;2023-08-20T12:38:55;99976.03;;;30.13;56.78
66176;BME280;52977;44.816;20.538;2023-08-20T12:41:22;99939.44;;;30.00;57.61
66176;BME280;52977;44.816;20.538;2023-08-20T12:43:48;99956.06;;;30.21;56.73
66176;BME280;52977;44.816;20.538;2023-08-20T12:46:16;99955.06;;;30.27;57.30
66176;BME280;52977;44.816;20.538;2023-08-20T12:48:42;99951.22;;;30.34;56.73
66176;BME280;52977;44.816;20.538;2023-08-20T12:51:08;99959.34;;;30.45;57.60
66176;BME280;52977;44.816;20.538;2023-08-20T12:53:38;99875.53;;;29.88;57.85